sensor_id;sensor_type;location;lat;lon;timestamp;pressure;altitude;pressure_sealevel;temperature;humidity
22283;BME280;11310;51.528;21.204;2023-03-13T00:00:09;99546.59;;;1.50;100.00
22283;BME280;11310;51.528;21.204;2023-03-13T00:02:38;99554.22;;;1.57;100.00
22283;BME280;11310;51.528;21.204;2023-03-13T00:05:07;99557.56;;;1.61;100.00
22283;BME280;11310;51.528;21.204;2023-03-13T00:07:36;99560.09;;;1.65;100.00
22283;BME280;11310;51.528;21.204;2023-03-13T00:10:06;99554.03;;;1.68;100.00
22283;BME280;11310;51.528;21.204;2023-03-13T00:12:35;99547.06;;;1.70;100.00
22283;BME280;11310;51.528;21.204;2023-03-13T00:15:04;99544.38;;;1.76;100.00
22283;BME280;11310;51.528;21.204;2023-03-13T00:17:35;99557.28;;;1.77;100.00
22283;BME280;11310;51.528;21.204;2023-03-13T00:20:05;99541.78;;;1.76;100.00
22283;BME280;11310;51.528;21.204;2023-03-13T00:22:35;99537.47;;;1.76;100.00
22283;BME280;11310;51.528;21.204;2023-03-13T00:25:04;99532.31;;;1.75;100.00
22283;BME280;11310;51.528;21.204;2023-03-13T00:27:33;99528.91;;;1.74;100.00
22283;BME280;11310;51.528;21.204;2023-03-13T00:30:02;99520.94;;;1.85;100.00
22283;BME280;11310;51.528;21.204;2023-03-13T00:32:32;99509.66;;;1.87;100.00
22283;BME280;11310;51.528;21.204;2023-03-13T00:35:03;99506.22;;;1.88;100.00
22283;BME280;11310;51.528;21.204;2023-03-13T00:37:32;99500.94;;;1.93;100.00
22283;BME280;11310;51.528;21.204;2023-03-13T00:40:01;99507.72;;;2.00;100.00
22283;BME280;11310;51.528;21.204;2023-03-13T00:42:30;99505.72;;;2.12;100.00
22283;BME280;11310;51.528;21.204;2023-03-13T00:45:00;99496.09;;;2.19;100.00
22283;BME280;11310;51.528;21.204;2023-03-13T00:47:28;99492.56;;;2.24;100.00
22283;BME280;11310;51.528;21.204;2023-03-13T00:49:57;99480.47;;;2.23;100.00
22283;BME280;11310;51.528;21.204;2023-03-13T00:52:28;99474.53;;;2.18;100.00
22283;BME280;11310;51.528;21.204;2023-03-13T00:54:56;99465.06;;;2.19;100.00
22283;BME280;11310;51.528;21.204;2023-03-13T00:57:26;99474.50;;;2.21;100.00
22283;BME280;11310;51.528;21.204;2023-03-13T00:59:55;99464.09;;;2.24;100.00
22283;BME280;11310;51.528;21.204;2023-03-13T01:02:23;99463.22;;;2.24;100.00
22283;BME280;11310;51.528;21.204;2023-03-13T01:04:53;99468.44;;;2.22;100.00
22283;BME280;11310;51.528;21.204;2023-03-13T01:07:23;99467.63;;;2.20;100.00
22283;BME280;11310;51.528;21.204;2023-03-13T01:09:57;99465.09;;;2.17;100.00
22283;BME280;11310;51.528;21.204;2023-03-13T01:12:28;99461.63;;;2.17;100.00
22283;BME280;11310;51.528;21.204;2023-03-13T01:14:57;99458.19;;;2.18;100.00
22283;BME280;11310;51.528;21.204;2023-03-13T01:17:25;99446.09;;;2.18;100.00
22283;BME280;11310;51.528;21.204;2023-03-13T01:19:54;99442.66;;;2.18;100.00
22283;BME280;11310;51.528;21.204;2023-03-13T01:22:23;99443.50;;;2.18;100.00
22283;BME280;11310;51.528;21.204;2023-03-13T01:24:52;99447.75;;;2.21;100.00
22283;BME280;11310;51.528;21.204;2023-03-13T01:27:22;99452.13;;;2.19;100.00
22283;BME280;11310;51.528;21.204;2023-03-13T01:29:51;99455.63;;;2.16;100.00
22283;BME280;11310;51.528;21.204;2023-03-13T01:32:20;99448.75;;;2.15;100.00
22283;BME280;11310;51.528;21.204;2023-03-13T01:34:49;99454.81;;;2.13;100.00
22283;BME280;11310;51.528;21.204;2023-03-13T01:37:17;99458.31;;;2.12;100.00
22283;BME280;11310;51.528;21.204;2023-03-13T01:39:46;99453.22;;;2.09;100.00
22283;BME280;11310;51.528;21.204;2023-03-13T01:42:14;99454.91;;;2.10;100.00
22283;BME280;11310;51.528;21.204;2023-03-13T01:44:52;99448.09;;;2.06;100.00
22283;BME280;11310;51.528;21.204;2023-03-13T01:47:23;99445.50;;;2.06;100.00
22283;BME280;11310;51.528;21.204;2023-03-13T01:50:14;99442.03;;;2.07;100.00
22283;BME280;11310;51.528;21.204;2023-03-13T01:53:02;99429.03;;;2.10;100.00
22283;BME280;11310;51.528;21.204;2023-03-13T01:55:32;99437.56;;;2.15;100.00
22283;BME280;11310;51.528;21.204;2023-03-13T01:58:01;99425.50;;;2.14;100.00
22283;BME280;11310;51.528;21.204;2023-03-13T02:00:33;99426.34;;;2.14;100.00
22283;BME280;11310;51.528;21.204;2023-03-13T02:03:10;99425.56;;;2.11;100.00
22283;BME280;11310;51.528;21.204;2023-03-13T02:05:41;99437.59;;;2.12;100.00
22283;BME280;11310;51.528;21.204;2023-03-13T02:08:15;99435.91;;;2.11;100.00
22283;BME280;11310;51.528;21.204;2023-03-13T02:10:49;99430.72;;;2.12;100.00
22283;BME280;11310;51.528;21.204;2023-03-13T02:13:20;99437.56;;;2.15;100.00
22283;BME280;11310;51.528;21.204;2023-03-13T02:15:51;99428.97;;;2.13;100.00
22283;BME280;11310;51.528;21.204;2023-03-13T02:18:19;99422.94;;;2.12;100.00
22283;BME280;11310;51.528;21.204;2023-03-13T02:20:49;99424.69;;;2.12;100.00
22283;BME280;11310;51.528;21.204;2023-03-13T02:23:24;99410.97;;;2.08;100.00
22283;BME280;11310;51.528;21.204;2023-03-13T02:25:56;99419.63;;;2.07;100.00
22283;BME280;11310;51.528;21.204;2023-03-13T02:28:34;99418.75;;;2.07;100.00
22283;BME280;11310;51.528;21.204;2023-03-13T02:31:09;99433.38;;;2.08;100.00
22283;BME280;11310;51.528;21.204;2023-03-13T02:33:39;99425.63;;;2.08;100.00
22283;BME280;11310;51.528;21.204;2023-03-13T02:36:13;99423.88;;;2.10;100.00
22283;BME280;11310;51.528;21.204;2023-03-13T02:38:50;99416.13;;;2.08;100.00
22283;BME280;11310;51.528;21.204;2023-03-13T02:41:22;99416.13;;;2.08;100.00
22283;BME280;11310;51.528;21.204;2023-03-13T02:43:55;99421.25;;;2.11;100.00
22283;BME280;11310;51.528;21.204;2023-03-13T02:46:23;99432.38;;;2.15;100.00
22283;BME280;11310;51.528;21.204;2023-03-13T02:48:54;99436.50;;;2.22;100.00
22283;BME280;11310;51.528;21.204;2023-03-13T02:51:28;99438.06;;;2.30;100.00
22283;BME280;11310;51.528;21.204;2023-03-13T02:54:01;99437.09;;;2.36;100.00
22283;BME280;11310;51.528;21.204;2023-03-13T02:56:33;99447.28;;;2.42;100.00
22283;BME280;11310;51.528;21.204;2023-03-13T02:59:05;99441.16;;;2.46;100.00
22283;BME280;11310;51.528;21.204;2023-03-13T03:01:38;99442.84;;;2.47;100.00
22283;BME280;11310;51.528;21.204;2023-03-13T03:04:06;99431.59;;;2.49;100.00
22283;BME280;11310;51.528;21.204;2023-03-13T03:06:35;99443.59;;;2.52;100.00
22283;BME280;11310;51.528;21.204;2023-03-13T03:09:04;99445.19;;;2.59;100.00
22283;BME280;11310;51.528;21.204;2023-03-13T03:11:36;99441.56;;;2.64;100.00
22283;BME280;11310;51.528;21.204;2023-03-13T03:14:11;99448.34;;;2.70;100.00
22283;BME280;11310;51.528;21.204;2023-03-13T03:16:43;99444.88;;;2.71;100.00
22283;BME280;11310;51.528;21.204;2023-03-13T03:19:12;99452.59;;;2.72;100.00
22283;BME280;11310;51.528;21.204;2023-03-13T03:21:41;99439.69;;;2.71;100.00
22283;BME280;11310;51.528;21.204;2023-03-13T03:24:10;99446.56;;;2.72;100.00
22283;BME280;11310;51.528;21.204;2023-03-13T03:26:39;99443.16;;;2.70;100.00
22283;BME280;11310;51.528;21.204;2023-03-13T03:29:15;99439.78;;;2.68;100.00
22283;BME280;11310;51.528;21.204;2023-03-13T03:31:47;99445.78;;;2.68;100.00
22283;BME280;11310;51.528;21.204;2023-03-13T03:34:16;99451.88;;;2.66;100.00
22283;BME280;11310;51.528;21.204;2023-03-13T03:36:45;99445.78;;;2.68;100.00
22283;BME280;11310;51.528;21.204;2023-03-13T03:39:14;99449.25;;;2.69;100.00
22283;BME280;11310;51.528;21.204;2023-03-13T03:41:45;99454.31;;;2.72;100.00
22283;BME280;11310;51.528;21.204;2023-03-13T03:44:13;99453.47;;;2.73;100.00
22283;BME280;11310;51.528;21.204;2023-03-13T03:46:50;99449.22;;;2.70;100.00
22283;BME280;11310;51.528;21.204;2023-03-13T03:49:19;99451.00;;;2.67;100.00
22283;BME280;11310;51.528;21.204;2023-03-13T03:51:48;99445.09;;;2.62;100.00
22283;BME280;11310;51.528;21.204;2023-03-13T03:54:22;99448.56;;;2.61;100.00
22283;BME280;11310;51.528;21.204;2023-03-13T03:56:52;99446.13;;;2.55;100.00
22283;BME280;11310;51.528;21.204;2023-03-13T03:59:21;99443.75;;;2.46;100.00
22283;BME280;11310;51.528;21.204;2023-03-13T04:01:58;99444.72;;;2.40;100.00
22283;BME280;11310;51.528;21.204;2023-03-13T04:04:28;99443.97;;;2.37;100.00
22283;BME280;11310;51.528;21.204;2023-03-13T04:07:02;99425.00;;;2.35;100.00
22283;BME280;11310;51.528;21.204;2023-03-13T04:09:33;99427.63;;;2.33;100.00
22283;BME280;11310;51.528;21.204;2023-03-13T04:12:06;99432.03;;;2.30;100.00
22283;BME280;11310;51.528;21.204;2023-03-13T04:14:40;99426.94;;;2.27;100.00
22283;BME280;11310;51.528;21.204;2023-03-13T04:17:11;99416.66;;;2.24;100.00
22283;BME280;11310;51.528;21.204;2023-03-13T04:19:41;99421.81;;;2.24;100.00
22283;BME280;11310;51.528;21.204;2023-03-13T04:22:09;99426.09;;;2.25;100.00
22283;BME280;11310;51.528;21.204;2023-03-13T04:24:44;99420.13;;;2.23;100.00
22283;BME280;11310;51.528;21.204;2023-03-13T04:27:14;99421.00;;;2.22;100.00
22283;BME280;11310;51.528;21.204;2023-03-13T04:29:44;99407.38;;;2.15;100.00
22283;BME280;11310;51.528;21.204;2023-03-13T04:32:39;99416.72;;;2.21;100.00
22283;BME280;11310;51.528;21.204;2023-03-13T04:35:20;99415.88;;;2.20;100.00
22283;BME280;11310;51.528;21.204;2023-03-13T04:38:07;99402.06;;;2.21;100.00
22283;BME280;11310;51.528;21.204;2023-03-13T04:41:02;99413.31;;;2.19;100.00
22283;BME280;11310;51.528;21.204;2023-03-13T04:43:48;99409.81;;;2.21;100.00
22283;BME280;11310;51.528;21.204;2023-03-13T04:46:40;99410.72;;;2.20;100.00
22283;BME280;11310;51.528;21.204;2023-03-13T04:49:24;99402.88;;;2.22;100.00
22283;BME280;11310;51.528;21.204;2023-03-13T04:52:07;99381.38;;;2.20;100.00
22283;BME280;11310;51.528;21.204;2023-03-13T04:55:00;99384.78;;;2.22;100.00
22283;BME280;11310;51.528;21.204;2023-03-13T04:57:55;99378.78;;;2.21;100.00
22283;BME280;11310;51.528;21.204;2023-03-13T05:00:43;99389.09;;;2.23;100.00
22283;BME280;11310;51.528;21.204;2023-03-13T05:03:25;99382.19;;;2.22;100.00
22283;BME280;11310;51.528;21.204;2023-03-13T05:05:54;99391.69;;;2.23;100.00
22283;BME280;11310;51.528;21.204;2023-03-13T05:08:43;99387.31;;;2.25;100.00
22283;BME280;11310;51.528;21.204;2023-03-13T05:11:41;99388.13;;;2.27;100.00
22283;BME280;11310;51.528;21.204;2023-03-13T05:14:35;99382.84;;;2.31;100.00
22283;BME280;11310;51.528;21.204;2023-03-13T05:17:25;99382.78;;;2.34;100.00
22283;BME280;11310;51.528;21.204;2023-03-13T05:20:14;99373.22;;;2.36;100.00
22283;BME280;11310;51.528;21.204;2023-03-13T05:23:00;99378.34;;;2.39;100.00
22283;BME280;11310;51.528;21.204;2023-03-13T05:25:53;99383.41;;;2.44;100.00
22283;BME280;11310;51.528;21.204;2023-03-13T05:28:51;99380.72;;;2.48;100.00
22283;BME280;11310;51.528;21.204;2023-03-13T05:31:26;99379.78;;;2.51;100.00
22283;BME280;11310;51.528;21.204;2023-03-13T05:34:10;99377.09;;;2.54;100.00
22283;BME280;11310;51.528;21.204;2023-03-13T05:36:58;99362.41;;;2.56;100.00
22283;BME280;11310;51.528;21.204;2023-03-13T05:39:46;99373.63;;;2.56;100.00
22283;BME280;11310;51.528;21.204;2023-03-13T05:42:18;99364.06;;;2.58;100.00
22283;BME280;11310;51.528;21.204;2023-03-13T05:44:58;99372.59;;;2.62;100.00
22283;BME280;11310;51.528;21.204;2023-03-13T05:47:43;99377.66;;;2.68;100.00
22283;BME280;11310;51.528;21.204;2023-03-13T05:50:34;99376.72;;;2.70;100.00
22283;BME280;11310;51.528;21.204;2023-03-13T05:53:21;99377.47;;;2.74;100.00
22283;BME280;11310;51.528;21.204;2023-03-13T05:56:01;99389.47;;;2.78;100.00
22283;BME280;11310;51.528;21.204;2023-03-13T05:58:57;99383.31;;;2.82;100.00
22283;BME280;11310;51.528;21.204;2023-03-13T06:01:55;99379.75;;;2.86;100.00
22283;BME280;11310;51.528;21.204;2023-03-13T06:04:35;99371.91;;;2.89;100.00
22283;BME280;11310;51.528;21.204;2023-03-13T06:07:05;99366.56;;;2.95;100.00
22283;BME280;11310;51.528;21.204;2023-03-13T06:09:34;99370.69;;;3.02;100.00
22283;BME280;11310;51.528;21.204;2023-03-13T06:12:03;99363.56;;;3.11;100.00
22283;BME280;11310;51.528;21.204;2023-03-13T06:14:33;99365.09;;;3.17;100.00
22283;BME280;11310;51.528;21.204;2023-03-13T06:17:17;99355.38;;;3.25;100.00
22283;BME280;11310;51.528;21.204;2023-03-13T06:19:45;99360.38;;;3.31;100.00
22283;BME280;11310;51.528;21.204;2023-03-13T06:22:17;99358.59;;;3.34;100.00
22283;BME280;11310;51.528;21.204;2023-03-13T06:24:46;99370.50;;;3.40;100.00
22283;BME280;11310;51.528;21.204;2023-03-13T06:27:16;99370.34;;;3.46;100.00
22283;BME280;11310;51.528;21.204;2023-03-13T06:29:44;99362.44;;;3.50;100.00
22283;BME280;11310;51.528;21.204;2023-03-13T06:32:13;99357.97;;;3.55;100.00
22283;BME280;11310;51.528;21.204;2023-03-13T06:34:41;99355.19;;;3.61;100.00
22283;BME280;11310;51.528;21.204;2023-03-13T06:37:10;99364.47;;;3.70;100.00
22283;BME280;11310;51.528;21.204;2023-03-13T06:39:41;99359.84;;;3.79;100.00
22283;BME280;11310;51.528;21.204;2023-03-13T06:42:10;99363.94;;;3.88;100.00
22283;BME280;11310;51.528;21.204;2023-03-13T06:44:38;99361.97;;;3.96;100.00
22283;BME280;11310;51.528;21.204;2023-03-13T06:47:07;99356.47;;;4.05;100.00
22283;BME280;11310;51.528;21.204;2023-03-13T06:49:36;99360.53;;;4.13;100.00
22283;BME280;11310;51.528;21.204;2023-03-13T06:52:05;99352.59;;;4.18;100.00
22283;BME280;11310;51.528;21.204;2023-03-13T06:54:34;99341.19;;;4.23;100.00
22283;BME280;11310;51.528;21.204;2023-03-13T06:57:04;99342.69;;;4.30;100.00
22283;BME280;11310;51.528;21.204;2023-03-13T06:59:33;99336.44;;;4.36;100.00
22283;BME280;11310;51.528;21.204;2023-03-13T07:02:02;99338.88;;;4.42;100.00
22283;BME280;11310;51.528;21.204;2023-03-13T07:04:31;99335.16;;;4.49;100.00
22283;BME280;11310;51.528;21.204;2023-03-13T07:07:00;99330.66;;;4.54;100.00
22283;BME280;11310;51.528;21.204;2023-03-13T07:09:29;99332.94;;;4.63;100.00
22283;BME280;11310;51.528;21.204;2023-03-13T07:11:57;99331.81;;;4.71;100.00
22283;BME280;11310;51.528;21.204;2023-03-13T07:14:27;99327.94;;;4.83;100.00
22283;BME280;11310;51.528;21.204;2023-03-13T07:16:57;99322.22;;;4.98;100.00
22283;BME280;11310;51.528;21.204;2023-03-13T07:19:27;99327.53;;;5.18;100.00
22283;BME280;11310;51.528;21.204;2023-03-13T07:21:55;99323.56;;;5.32;100.00
22283;BME280;11310;51.528;21.204;2023-03-13T07:24:24;99323.97;;;5.45;100.00
22283;BME280;11310;51.528;21.204;2023-03-13T07:26:52;99319.13;;;5.57;100.00
22283;BME280;11310;51.528;21.204;2023-03-13T07:29:35;99325.78;;;5.66;100.00
22283;BME280;11310;51.528;21.204;2023-03-13T07:32:05;99317.63;;;5.75;100.00
22283;BME280;11310;51.528;21.204;2023-03-13T07:34:34;99309.50;;;5.84;100.00
22283;BME280;11310;51.528;21.204;2023-03-13T07:37:02;99310.94;;;5.91;100.00
22283;BME280;11310;51.528;21.204;2023-03-13T07:39:30;99306.41;;;5.96;100.00
22283;BME280;11310;51.528;21.204;2023-03-13T07:41:59;99306.97;;;6.04;100.00
22283;BME280;11310;51.528;21.204;2023-03-13T07:44:28;99306.53;;;6.14;100.00
22283;BME280;11310;51.528;21.204;2023-03-13T07:47:00;99310.41;;;6.26;100.00
22283;BME280;11310;51.528;21.204;2023-03-13T07:49:28;99304.03;;;6.33;100.00
22283;BME280;11310;51.528;21.204;2023-03-13T07:51:57;99305.56;;;6.38;100.00
22283;BME280;11310;51.528;21.204;2023-03-13T07:54:27;99305.38;;;6.43;100.00
22283;BME280;11310;51.528;21.204;2023-03-13T07:56:56;99292.09;;;6.49;100.00
22283;BME280;11310;51.528;21.204;2023-03-13T07:59:25;99287.41;;;6.57;100.00
22283;BME280;11310;51.528;21.204;2023-03-13T08:01:53;99290.47;;;6.66;100.00
22283;BME280;11310;51.528;21.204;2023-03-13T08:04:23;99284.81;;;6.77;100.00
22283;BME280;11310;51.528;21.204;2023-03-13T08:06:52;99287.63;;;6.92;100.00
22283;BME280;11310;51.528;21.204;2023-03-13T08:09:21;99287.63;;;7.11;100.00
22283;BME280;11310;51.528;21.204;2023-03-13T08:11:50;99291.78;;;7.35;100.00
22283;BME280;11310;51.528;21.204;2023-03-13T08:14:18;99303.09;;;7.54;100.00
22283;BME280;11310;51.528;21.204;2023-03-13T08:16:47;99296.25;;;7.70;100.00
22283;BME280;11310;51.528;21.204;2023-03-13T08:19:17;99299.84;;;7.86;100.00
22283;BME280;11310;51.528;21.204;2023-03-13T08:21:47;99289.25;;;8.07;100.00
22283;BME280;11310;51.528;21.204;2023-03-13T08:24:15;99278.88;;;8.24;100.00
22283;BME280;11310;51.528;21.204;2023-03-13T08:26:44;99277.13;;;8.42;100.00
22283;BME280;11310;51.528;21.204;2023-03-13T08:29:13;99270.91;;;8.61;100.00
22283;BME280;11310;51.528;21.204;2023-03-13T08:31:44;99262.34;;;8.75;100.00
22283;BME280;11310;51.528;21.204;2023-03-13T08:34:14;99266.63;;;8.93;100.00
22283;BME280;11310;51.528;21.204;2023-03-13T08:36:44;99267.38;;;9.12;100.00
22283;BME280;11310;51.528;21.204;2023-03-13T08:39:15;99272.50;;;9.30;100.00
22283;BME280;11310;51.528;21.204;2023-03-13T08:41:44;99266.97;;;9.52;100.00
22283;BME280;11310;51.528;21.204;2023-03-13T08:44:14;99271.22;;;9.70;100.00
22283;BME280;11310;51.528;21.204;2023-03-13T08:46:43;99268.00;;;9.80;100.00
22283;BME280;11310;51.528;21.204;2023-03-13T08:49:12;99269.09;;;9.92;100.00
22283;BME280;11310;51.528;21.204;2023-03-13T08:51:43;99278.81;;;10.21;100.00
22283;BME280;11310;51.528;21.204;2023-03-13T08:54:14;99262.59;;;10.30;100.00
22283;BME280;11310;51.528;21.204;2023-03-13T08:56:42;99270.97;;;10.21;100.00
22283;BME280;11310;51.528;21.204;2023-03-13T08:59:11;99270.66;;;10.11;100.00
22283;BME280;11310;51.528;21.204;2023-03-13T09:01:42;99267.34;;;9.92;100.00
22283;BME280;11310;51.528;21.204;2023-03-13T09:04:11;99260.66;;;9.87;100.00
22283;BME280;11310;51.528;21.204;2023-03-13T09:06:42;99253.53;;;9.89;100.00
22283;BME280;11310;51.528;21.204;2023-03-13T09:09:11;99268.00;;;9.96;100.00
22283;BME280;11310;51.528;21.204;2023-03-13T09:11:42;99268.00;;;9.96;100.00
22283;BME280;11310;51.528;21.204;2023-03-13T09:14:11;99253.13;;;9.96;100.00
22283;BME280;11310;51.528;21.204;2023-03-13T09:16:40;99256.75;;;9.94;100.00
22283;BME280;11310;51.528;21.204;2023-03-13T09:19:08;99254.63;;;10.00;100.00
22283;BME280;11310;51.528;21.204;2023-03-13T09:21:37;99247.41;;;10.05;100.00
22283;BME280;11310;51.528;21.204;2023-03-13T09:24:06;99251.81;;;10.05;100.00
22283;BME280;11310;51.528;21.204;2023-03-13T09:26:35;99247.56;;;10.02;100.00
22283;BME280;11310;51.528;21.204;2023-03-13T09:29:09;99240.53;;;10.03;100.00
22283;BME280;11310;51.528;21.204;2023-03-13T09:31:38;99244.53;;;10.10;100.00
22283;BME280;11310;51.528;21.204;2023-03-13T09:34:08;99242.13;;;10.21;100.00
22283;BME280;11310;51.528;21.204;2023-03-13T09:36:36;99228.41;;;10.31;100.00
22283;BME280;11310;51.528;21.204;2023-03-13T09:39:05;99234.31;;;10.35;100.00
22283;BME280;11310;51.528;21.204;2023-03-13T09:41:38;99230.03;;;10.34;100.00
22283;BME280;11310;51.528;21.204;2023-03-13T09:44:14;99217.69;;;10.36;100.00
22283;BME280;11310;51.528;21.204;2023-03-13T09:46:52;99227.97;;;10.39;100.00
22283;BME280;11310;51.528;21.204;2023-03-13T09:49:29;99216.53;;;10.40;100.00
22283;BME280;11310;51.528;21.204;2023-03-13T09:52:04;99213.31;;;10.50;100.00
22283;BME280;11310;51.528;21.204;2023-03-13T09:54:40;99214.75;;;10.70;100.00
22283;BME280;11310;51.528;21.204;2023-03-13T09:57:19;99218.75;;;10.91;100.00
22283;BME280;11310;51.528;21.204;2023-03-13T09:59:55;99218.94;;;11.02;99.91
22283;BME280;11310;51.528;21.204;2023-03-13T10:02:30;99219.66;;;11.04;98.51
22283;BME280;11310;51.528;21.204;2023-03-13T10:05:05;99212.09;;;10.99;97.11
22283;BME280;11310;51.528;21.204;2023-03-13T10:07:35;99211.78;;;11.04;98.20
22283;BME280;11310;51.528;21.204;2023-03-13T10:10:12;99213.28;;;11.22;97.75
22283;BME280;11310;51.528;21.204;2023-03-13T10:12:44;99208.16;;;11.34;96.96
22283;BME280;11310;51.528;21.204;2023-03-13T10:15:34;99211.97;;;11.43;97.52
22283;BME280;11310;51.528;21.204;2023-03-13T10:18:13;99204.66;;;11.48;97.06
22283;BME280;11310;51.528;21.204;2023-03-13T10:20:45;99200.25;;;11.48;96.19
22283;BME280;11310;51.528;21.204;2023-03-13T10:23:18;99198.44;;;11.49;96.82
22283;BME280;11310;51.528;21.204;2023-03-13T10:25:48;99192.00;;;11.40;97.43
22283;BME280;11310;51.528;21.204;2023-03-13T10:28:18;99181.31;;;11.43;97.55
22283;BME280;11310;51.528;21.204;2023-03-13T10:30:53;99174.81;;;11.49;98.14
22283;BME280;11310;51.528;21.204;2023-03-13T10:33:26;99159.22;;;11.74;97.91
22283;BME280;11310;51.528;21.204;2023-03-13T10:36:00;99158.75;;;11.94;94.68
22283;BME280;11310;51.528;21.204;2023-03-13T10:38:32;99164.41;;;12.15;95.68
22283;BME280;11310;51.528;21.204;2023-03-13T10:41:08;99158.78;;;12.33;95.13
22283;BME280;11310;51.528;21.204;2023-03-13T10:43:50;99150.47;;;12.39;95.08
22283;BME280;11310;51.528;21.204;2023-03-13T10:46:28;99146.16;;;12.38;94.43
22283;BME280;11310;51.528;21.204;2023-03-13T10:49:00;99138.78;;;12.43;95.71
22283;BME280;11310;51.528;21.204;2023-03-13T10:51:34;99140.81;;;12.40;89.79
22283;BME280;11310;51.528;21.204;2023-03-13T10:54:14;99136.88;;;12.58;95.22
22283;BME280;11310;51.528;21.204;2023-03-13T10:56:44;99131.94;;;12.78;93.69
22283;BME280;11310;51.528;21.204;2023-03-13T10:59:23;99130.81;;;13.07;92.69
22283;BME280;11310;51.528;21.204;2023-03-13T11:01:57;99117.22;;;13.49;90.36
22283;BME280;11310;51.528;21.204;2023-03-13T11:04:30;99119.41;;;14.02;88.13
22283;BME280;11310;51.528;21.204;2023-03-13T11:07:00;99117.66;;;14.59;84.44
22283;BME280;11310;51.528;21.204;2023-03-13T11:09:30;99116.84;;;15.14;82.68
22283;BME280;11310;51.528;21.204;2023-03-13T11:12:04;99100.06;;;15.37;82.34
22283;BME280;11310;51.528;21.204;2023-03-13T11:14:34;99097.97;;;15.29;83.01
22283;BME280;11310;51.528;21.204;2023-03-13T11:17:10;99095.84;;;15.01;83.66
22283;BME280;11310;51.528;21.204;2023-03-13T11:19:53;99095.50;;;15.06;83.84
22283;BME280;11310;51.528;21.204;2023-03-13T11:22:29;99096.19;;;14.86;84.80
22283;BME280;11310;51.528;21.204;2023-03-13T11:25:10;99085.63;;;14.53;86.19
22283;BME280;11310;51.528;21.204;2023-03-13T11:27:49;99070.66;;;14.19;86.89
22283;BME280;11310;51.528;21.204;2023-03-13T11:30:44;99082.31;;;13.93;85.86
22283;BME280;11310;51.528;21.204;2023-03-13T11:33:26;99060.06;;;13.73;87.51
22283;BME280;11310;51.528;21.204;2023-03-13T11:36:00;99066.63;;;13.91;88.07
22283;BME280;11310;51.528;21.204;2023-03-13T11:38:34;99047.34;;;14.02;87.54
22283;BME280;11310;51.528;21.204;2023-03-13T11:41:11;99050.56;;;13.94;87.90
22283;BME280;11310;51.528;21.204;2023-03-13T11:43:57;99035.91;;;13.79;87.90
22283;BME280;11310;51.528;21.204;2023-03-13T11:46:42;99032.81;;;13.96;87.36
22283;BME280;11310;51.528;21.204;2023-03-13T11:49:29;99011.88;;;14.06;84.98
22283;BME280;11310;51.528;21.204;2023-03-13T11:52:13;99017.00;;;13.96;87.81
22283;BME280;11310;51.528;21.204;2023-03-13T11:54:54;99013.16;;;13.89;84.57
22283;BME280;11310;51.528;21.204;2023-03-13T11:57:28;99005.56;;;13.74;89.83
22283;BME280;11310;51.528;21.204;2023-03-13T12:00:12;98997.88;;;13.71;88.23
22283;BME280;11310;51.528;21.204;2023-03-13T12:02:47;98998.53;;;13.85;88.60
22283;BME280;11310;51.528;21.204;2023-03-13T12:05:19;98992.84;;;14.13;87.68
22283;BME280;11310;51.528;21.204;2023-03-13T12:07:52;98987.06;;;14.19;86.58
22283;BME280;11310;51.528;21.204;2023-03-13T12:10:26;98992.19;;;13.99;84.31
22283;BME280;11310;51.528;21.204;2023-03-13T12:13:03;98996.69;;;13.75;81.46
22283;BME280;11310;51.528;21.204;2023-03-13T12:15:36;98982.44;;;13.66;87.18
22283;BME280;11310;51.528;21.204;2023-03-13T12:18:12;98985.97;;;13.54;87.64
22283;BME280;11310;51.528;21.204;2023-03-13T12:20:50;98984.75;;;13.47;87.54
22283;BME280;11310;51.528;21.204;2023-03-13T12:23:27;99000.97;;;13.30;87.96
22283;BME280;11310;51.528;21.204;2023-03-13T12:26:03;98988.06;;;13.15;88.07
22283;BME280;11310;51.528;21.204;2023-03-13T12:28:38;98985.16;;;13.07;88.27
22283;BME280;11310;51.528;21.204;2023-03-13T12:31:16;98982.50;;;13.07;88.50
22283;BME280;11310;51.528;21.204;2023-03-13T12:33:52;98959.66;;;13.07;88.97
22283;BME280;11310;51.528;21.204;2023-03-13T12:36:28;98966.50;;;13.10;88.47
22283;BME280;11310;51.528;21.204;2023-03-13T12:39:09;98967.84;;;13.15;88.53
22283;BME280;11310;51.528;21.204;2023-03-13T12:41:41;98964.66;;;13.23;88.18
22283;BME280;11310;51.528;21.204;2023-03-13T12:44:15;98953.53;;;13.30;87.65
22283;BME280;11310;51.528;21.204;2023-03-13T12:46:47;98945.66;;;13.30;88.94
22283;BME280;11310;51.528;21.204;2023-03-13T12:49:48;98948.75;;;13.24;85.92
22283;BME280;11310;51.528;21.204;2023-03-13T12:56:01;98937.63;;;13.08;89.50
22283;BME280;11310;51.528;21.204;2023-03-13T12:58:51;98940.50;;;13.05;88.53
22283;BME280;11310;51.528;21.204;2023-03-13T13:01:29;98929.25;;;13.03;90.41
22283;BME280;11310;51.528;21.204;2023-03-13T13:04:00;98923.47;;;12.98;91.39
22283;BME280;11310;51.528;21.204;2023-03-13T13:06:54;98920.53;;;12.90;92.08
22283;BME280;11310;51.528;21.204;2023-03-13T13:09:27;98915.22;;;12.79;92.48
22283;BME280;11310;51.528;21.204;2023-03-13T13:11:59;98908.91;;;12.69;92.97
22283;BME280;11310;51.528;21.204;2023-03-13T13:14:54;98911.28;;;12.61;92.21
22283;BME280;11310;51.528;21.204;2023-03-13T13:17:49;98920.13;;;12.60;90.80
22283;BME280;11310;51.528;21.204;2023-03-13T13:20:31;98908.13;;;12.56;91.74
22283;BME280;11310;51.528;21.204;2023-03-13T13:23:23;98922.66;;;12.49;92.01
22283;BME280;11310;51.528;21.204;2023-03-13T13:25:55;98919.72;;;12.41;93.10
22283;BME280;11310;51.528;21.204;2023-03-13T13:28:45;98922.09;;;12.33;91.79